Time;durP1;ratioP1;P1;durP2;ratioP2;P2;SDS_P1;SDS_P2;PMS_P1;PMS_P2;Temp;Humidity;BMP_temperature;BMP_pressure;BME280_temperature;BME280_humidity;BME280_pressure;Samples;Min_cycle;Max_cycle;Signal;HPM_P1;HPM_P2
2023/08/24 00:01:16;;;;;;;3.42;3.13;;;13.50;99.90;;;;;;4935473;28;20420;-91
2023/08/24 00:03:48;;;;;;;3.42;2.90;;;13.60;99.90;;;;;;4936591;28;20451;-91
2023/08/24 00:06:14;;;;;;;3.33;3.03;;;14.30;99.90;;;;;;4935608;28;20495;-91
2023/08/24 00:08:40;;;;;;;5.40;4.00;;;13.90;99.90;;;;;;4936110;28;20553;-93
2023/08/24 00:11:07;;;;;;;5.50;4.40;;;13.50;99.90;;;;;;4936018;28;20412;-91
2023/08/24 00:13:33;;;;;;;4.18;3.65;;;13.60;99.90;;;;;;4935989;28;21285;-90
2023/08/24 00:15:59;;;;;;;4.40;3.35;;;13.40;99.90;;;;;;4936094;28;20416;-90
2023/08/24 00:18:24;;;;;;;4.65;3.90;;;13.40;99.90;;;;;;4935528;28;21052;-91
2023/08/24 00:20:50;;;;;;;4.50;3.60;;;13.80;99.90;;;;;;4936308;28;20495;-92
2023/08/24 00:23:18;;;;;;;5.50;4.13;;;14.10;99.90;;;;;;4950897;28;20436;-91
2023/08/24 00:25:44;;;;;;;4.85;4.18;;;13.90;99.90;;;;;;4936483;28;20396;-91
2023/08/24 00:28:10;;;;;;;6.40;4.38;;;13.80;99.90;;;;;;4934739;28;20408;-90
2023/08/24 00:30:37;;;;;;;5.63;4.87;;;13.60;99.90;;;;;;4936003;28;21025;-93
2023/08/24 00:33:03;;;;;;;5.23;4.73;;;13.60;99.90;;;;;;4935653;28;20420;-92
2023/08/24 00:35:28;;;;;;;6.93;5.20;;;13.60;99.90;;;;;;4935355;28;20495;-91
2023/08/24 00:37:55;;;;;;;4.30;3.33;;;13.70;99.90;;;;;;4935927;28;20420;-91
2023/08/24 00:40:21;;;;;;;3.75;3.22;;;13.60;99.90;;;;;;4935395;28;20416;-93
2023/08/24 00:42:47;;;;;;;4.20;3.80;;;13.60;99.90;;;;;;4937567;28;20442;-91
2023/08/24 00:45:13;;;;;;;5.70;4.38;;;14.00;99.90;;;;;;4938552;28;20832;-91
2023/08/24 00:47:42;;;;;;;3.92;3.60;;;13.60;99.90;;;;;;4939696;28;20427;-90
2023/08/24 00:50:09;;;;;;;4.00;3.63;;;13.70;99.90;;;;;;4939100;28;20440;-93
2023/08/24 00:52:39;;;;;;;4.88;4.38;;;13.60;99.90;;;;;;4939166;28;20493;-90
2023/08/24 00:55:05;;;;;;;8.18;6.60;;;13.70;99.90;;;;;;4939595;28;20486;-93
2023/08/24 00:57:32;;;;;;;4.68;4.15;;;13.80;99.90;;;;;;4938972;28;20938;-91
2023/08/24 00:59:59;;;;;;;6.07;5.00;;;13.60;99.90;;;;;;4939492;28;20446;-92
2023/08/24 01:02:25;;;;;;;7.22;4.60;;;14.00;99.90;;;;;;4938446;28;20443;-91
2023/08/24 01:04:51;;;;;;;5.80;4.20;;;13.80;99.90;;;;;;4940003;28;20438;-91
2023/08/24 01:07:18;;;;;;;4.88;3.75;;;14.20;99.90;;;;;;4938821;28;20414;-90
2023/08/24 01:09:44;;;;;;;5.93;5.15;;;13.90;99.90;;;;;;4939888;28;20562;-90
2023/08/24 01:12:12;;;;;;;8.27;6.22;;;14.10;99.90;;;;;;4938905;28;21185;-91
2023/08/24 01:14:54;;;;;;;7.22;6.00;;;13.90;99.90;;;;;;4938671;28;20419;-94
2023/08/24 01:17:24;;;;;;;9.13;6.88;;;13.90;99.90;;;;;;4939421;28;20424;-92
2023/08/24 01:19:50;;;;;;;6.05;5.40;;;14.20;99.90;;;;;;4940592;28;20416;-92
2023/08/24 01:22:32;;;;;;;7.45;5.63;;;14.20;99.90;;;;;;4939253;28;20404;-91
2023/08/24 01:25:28;;;;;;;8.73;6.53;;;14.10;99.90;;;;;;4938684;28;20488;-91
2023/08/24 01:27:55;;;;;;;8.90;7.50;;;14.10;99.90;;;;;;4938319;28;20420;-91
2023/08/24 01:30:21;;;;;;;13.65;10.32;;;14.20;99.90;;;;;;4939109;28;20416;-92
2023/08/24 01:32:47;;;;;;;7.97;6.80;;;14.10;99.90;;;;;;4938016;28;20543;-92
2023/08/24 01:35:12;;;;;;;12.63;10.47;;;14.30;99.90;;;;;;4939233;28;20460;-92
2023/08/24 01:37:38;;;;;;;12.38;10.98;;;14.10;99.90;;;;;;4938932;28;20462;-91
2023/08/24 01:40:12;;;;;;;12.48;9.85;;;14.10;99.90;;;;;;4938875;28;20413;-91
2023/08/24 01:43:02;;;;;;;14.73;13.15;;;14.40;99.90;;;;;;4938791;28;20440;-90
2023/08/24 01:45:31;;;;;;;13.18;11.88;;;14.30;99.90;;;;;;4938732;28;20899;-92
2023/08/24 01:47:58;;;;;;;15.35;12.30;;;14.40;99.90;;;;;;4939134;28;20456;-90
2023/08/24 01:50:25;;;;;;;17.98;15.32;;;14.60;99.90;;;;;;4937934;28;20412;-90
2023/08/24 01:52:51;;;;;;;15.00;13.40;;;14.30;99.90;;;;;;4939084;28;20419;-90
2023/08/24 01:55:20;;;;;;;11.88;10.73;;;14.40;99.90;;;;;;4938213;28;20506;-91
2023/08/24 01:57:46;;;;;;;13.48;12.10;;;14.40;99.90;;;;;;4938053;28;20412;-92
2023/08/24 02:00:12;;;;;;;12.38;11.18;;;14.50;99.90;;;;;;4938732;28;20440;-92
2023/08/24 02:02:38;;;;;;;13.25;11.88;;;14.40;99.90;;;;;;4937627;28;20438;-91
2023/08/24 02:05:04;;;;;;;18.10;14.37;;;14.40;99.90;;;;;;4938579;28;20895;-91
2023/08/24 02:07:29;;;;;;;16.02;13.82;;;14.40;99.90;;;;;;4937299;28;20404;-92
2023/08/24 02:09:55;;;;;;;14.40;11.77;;;14.70;99.90;;;;;;4940123;28;21014;-93
2023/08/24 02:12:21;;;;;;;13.95;12.15;;;14.70;99.90;;;;;;4937844;28;20494;-92
2023/08/24 02:14:47;;;;;;;15.30;13.00;;;14.60;99.90;;;;;;4937626;28;20412;-91
2023/08/24 02:17:13;;;;;;;13.43;11.32;;;14.70;99.90;;;;;;4937520;28;20416;-91
2023/08/24 02:19:41;;;;;;;12.95;11.55;;;14.70;99.90;;;;;;4937104;28;20419;-93
2023/08/24 02:22:07;;;;;;;16.42;13.23;;;14.50;99.90;;;;;;4938136;28;20475;-90
2023/08/24 02:24:33;;;;;;;12.75;11.45;;;14.60;99.90;;;;;;4936766;28;20445;-92
2023/08/24 02:26:59;;;;;;;13.50;11.60;;;14.90;99.90;;;;;;4938234;28;20412;-91
2023/08/24 02:29:25;;;;;;;12.48;10.77;;;14.70;99.90;;;;;;4937043;28;20409;-91
2023/08/24 02:31:51;;;;;;;13.95;12.50;;;14.50;99.90;;;;;;4937834;28;20416;-91
2023/08/24 02:34:17;;;;;;;14.30;12.88;;;14.80;99.90;;;;;;4937049;28;20419;-91
2023/08/24 02:36:43;;;;;;;14.10;12.63;;;14.60;99.90;;;;;;4937311;28;20423;-92
2023/08/24 02:39:09;;;;;;;13.60;12.20;;;14.70;99.90;;;;;;4938301;28;20411;-93
2023/08/24 02:41:35;;;;;;;14.50;12.90;;;14.40;99.90;;;;;;4937349;28;20544;-91
2023/08/24 02:44:01;;;;;;;12.88;11.63;;;15.10;99.90;;;;;;4937802;28;20416;-91
2023/08/24 02:46:27;;;;;;;13.25;11.38;;;14.70;99.90;;;;;;4936513;28;20408;-92
2023/08/24 02:48:52;;;;;;;15.18;13.68;;;14.90;99.90;;;;;;4937938;28;20507;-91
2023/08/24 02:51:21;;;;;;;13.57;11.95;;;14.90;99.90;;;;;;4936704;28;20467;-92
2023/08/24 02:53:47;;;;;;;14.97;13.13;;;14.80;99.90;;;;;;4937200;28;20459;-92
2023/08/24 02:56:13;;;;;;;15.38;13.85;;;14.90;99.90;;;;;;4937138;28;20408;-92
2023/08/24 02:58:38;;;;;;;14.65;13.25;;;14.80;99.90;;;;;;4936965;28;20408;-91
2023/08/24 03:01:08;;;;;;;15.13;12.57;;;14.80;99.90;;;;;;4937524;28;20819;-92
2023/08/24 03:03:37;;;;;;;17.70;15.82;;;14.90;99.90;;;;;;4937953;28;20664;-92
2023/08/24 03:06:04;;;;;;;14.73;13.30;;;14.70;99.90;;;;;;4936857;28;20503;-93
2023/08/24 03:08:31;;;;;;;16.50;14.73;;;14.70;99.90;;;;;;4936396;28;20455;-92
2023/08/24 03:10:58;;;;;;;22.65;18.90;;;14.80;99.90;;;;;;4936884;28;20486;-91
2023/08/24 03:13:24;;;;;;;15.93;14.27;;;15.10;99.90;;;;;;4936536;28;20444;-91
2023/08/24 03:15:51;;;;;;;13.98;12.57;;;14.80;99.90;;;;;;4936648;28;20423;-91
2023/08/24 03:18:17;;;;;;;16.90;15.13;;;14.70;99.90;;;;;;4937576;28;20412;-91
2023/08/24 03:20:48;;;;;;;15.80;14.00;;;14.80;99.90;;;;;;4936320;28;20934;-90
2023/08/24 03:23:14;;;;;;;15.52;13.90;;;14.50;99.90;;;;;;4937143;28;20463;-91
2023/08/24 03:25:41;;;;;;;13.85;12.13;;;14.60;99.90;;;;;;4936264;28;20404;-91
2023/08/24 03:28:08;;;;;;;13.77;12.48;;;14.60;99.90;;;;;;4936702;28;20889;-92
2023/08/24 03:30:38;;;;;;;12.60;11.40;;;14.60;99.90;;;;;;4936217;28;20443;-90
2023/08/24 03:33:04;;;;;;;14.23;12.77;;;14.60;99.90;;;;;;4937114;28;20408;-91
2023/08/24 03:35:33;;;;;;;14.88;12.50;;;14.60;99.90;;;;;;4936716;28;20409;-90
2023/08/24 03:38:00;;;;;;;15.13;13.48;;;15.10;99.90;;;;;;4935587;28;20420;-91
2023/08/24 03:40:25;;;;;;;12.75;11.48;;;14.40;99.90;;;;;;4937012;28;20408;-92
2023/08/24 03:42:52;;;;;;;13.30;12.00;;;14.90;99.90;;;;;;4935563;28;20424;-92
2023/08/24 03:45:18;;;;;;;15.45;13.43;;;15.10;99.90;;;;;;4933166;28;20415;-92
2023/08/24 03:47:44;;;;;;;14.30;12.80;;;14.80;99.90;;;;;;4931757;29;20438;-91
2023/08/24 03:50:10;;;;;;;16.95;14.98;;;14.60;99.90;;;;;;4933000;28;20428;-91
2023/08/24 03:52:36;;;;;;;17.15;15.40;;;14.70;99.90;;;;;;4932876;29;20410;-91
2023/08/24 03:55:01;;;;;;;21.10;18.80;;;14.90;99.90;;;;;;4923569;28;20414;-92
2023/08/24 03:57:27;;;;;;;16.20;14.60;;;14.90;99.90;;;;;;4936270;28;20882;-93
2023/08/24 03:59:53;;;;;;;13.55;12.10;;;15.30;99.90;;;;;;4932604;29;20426;-92
2023/08/24 04:02:19;;;;;;;12.95;11.63;;;14.80;99.90;;;;;;4933670;28;20416;-93
2023/08/24 04:04:45;;;;;;;13.57;12.17;;;14.90;99.90;;;;;;4936829;28;20432;-91
2023/08/24 04:07:11;;;;;;;14.73;13.20;;;15.20;99.90;;;;;;4943254;28;20451;-93
2023/08/24 04:09:36;;;;;;;15.37;13.77;;;15.00;99.90;;;;;;4935590;28;20412;-90
2023/08/24 04:12:02;;;;;;;15.02;13.25;;;14.90;99.90;;;;;;4934177;28;20414;-92
2023/08/24 04:14:28;;;;;;;20.67;15.83;;;14.80;99.90;;;;;;4934092;28;20414;-91
2023/08/24 04:16:54;;;;;;;19.73;15.38;;;14.80;99.90;;;;;;4934086;28;20416;-92
2023/08/24 04:19:19;;;;;;;13.50;11.45;;;14.80;99.90;;;;;;4937817;28;20416;-90
2023/08/24 04:21:45;;;;;;;15.33;13.23;;;15.20;99.90;;;;;;4935156;28;20416;-91
2023/08/24 04:24:11;;;;;;;16.13;14.52;;;15.20;99.90;;;;;;4933172;29;20433;-91
2023/08/24 04:26:36;;;;;;;16.33;14.60;;;14.40;99.90;;;;;;4918670;28;20420;-91
2023/08/24 04:29:02;;;;;;;15.93;13.30;;;14.90;99.90;;;;;;4937880;28;20989;-90
2023/08/24 04:31:28;;;;;;;16.23;14.57;;;14.80;99.90;;;;;;4935947;28;20467;-89
2023/08/24 04:33:53;;;;;;;16.93;14.93;;;14.80;99.90;;;;;;4932135;29;20417;-89
2023/08/24 04:36:19;;;;;;;14.27;12.75;;;14.80;99.90;;;;;;4932160;28;20424;-91
2023/08/24 04:38:45;;;;;;;14.73;13.27;;;15.10;99.90;;;;;;4934574;28;20416;-90
2023/08/24 04:41:12;;;;;;;17.03;14.00;;;14.70;99.90;;;;;;4930587;29;20406;-92
2023/08/24 04:43:38;;;;;;;17.63;14.90;;;14.60;99.90;;;;;;4925274;28;20467;-91
2023/08/24 04:46:04;;;;;;;15.25;13.65;;;14.30;99.90;;;;;;4935589;28;20408;-92
2023/08/24 04:48:34;;;;;;;14.35;12.88;;;14.80;99.90;;;;;;4935562;28;20419;-92
2023/08/24 04:51:01;;;;;;;14.07;12.68;;;14.60;99.90;;;;;;4935582;28;20423;-92
2023/08/24 04:53:27;;;;;;;15.40;13.80;;;15.00;99.90;;;;;;4935813;28;20912;-91
2023/08/24 04:55:53;;;;;;;17.13;15.33;;;14.50;99.90;;;;;;4934871;28;20423;-92
2023/08/24 04:58:19;;;;;;;19.03;16.53;;;14.80;99.90;;;;;;4936012;28;20404;-90
2023/08/24 05:00:44;;;;;;;17.17;15.15;;;14.50;99.90;;;;;;4934620;28;20416;-92
2023/08/24 05:03:10;;;;;;;15.98;14.30;;;14.60;99.90;;;;;;4935771;28;20436;-93
2023/08/24 05:05:37;;;;;;;17.27;15.57;;;14.70;99.90;;;;;;4934937;28;20409;-92
2023/08/24 05:08:06;;;;;;;18.58;15.93;;;14.70;99.90;;;;;;4935622;28;20428;-91
2023/08/24 05:10:33;;;;;;;18.98;16.95;;;14.80;99.90;;;;;;4935186;28;20423;-92
2023/08/24 05:13:02;;;;;;;18.08;15.93;;;14.80;99.90;;;;;;4933518;28;20439;-91
2023/08/24 05:15:28;;;;;;;18.30;15.18;;;14.80;99.90;;;;;;4935840;28;20408;-91
2023/08/24 05:17:59;;;;;;;17.67;15.80;;;14.70;99.90;;;;;;4934553;28;20993;-92
2023/08/24 05:20:25;;;;;;;17.53;15.33;;;14.80;99.90;;;;;;4935534;28;20758;-92
2023/08/24 05:22:51;;;;;;;15.38;13.88;;;14.80;99.90;;;;;;4934741;28;20827;-91
2023/08/24 05:25:17;;;;;;;17.25;14.63;;;14.90;99.90;;;;;;4935229;28;20413;-91
2023/08/24 05:27:43;;;;;;;15.45;14.00;;;14.90;99.90;;;;;;4934690;28;20412;-92
2023/08/24 05:30:10;;;;;;;16.65;15.00;;;15.00;99.90;;;;;;4938997;28;20989;-92
2023/08/24 05:32:38;;;;;;;16.00;14.50;;;15.00;99.90;;;;;;4939202;28;20401;-90
2023/08/24 05:35:08;;;;;;;17.38;15.25;;;15.10;99.90;;;;;;4938596;28;20471;-90
2023/08/24 05:37:34;;;;;;;18.97;15.77;;;15.20;99.90;;;;;;4935396;29;20441;-91
2023/08/24 05:40:01;;;;;;;18.65;15.43;;;15.30;99.90;;;;;;4919283;29;20418;-91
2023/08/24 05:42:27;;;;;;;16.58;14.27;;;15.40;99.90;;;;;;4919954;29;20511;-92
2023/08/24 05:44:53;;;;;;;18.67;14.60;;;15.80;99.90;;;;;;4919687;29;20489;-89
2023/08/24 05:47:19;;;;;;;17.13;15.00;;;15.60;99.90;;;;;;4919543;29;20406;-91
2023/08/24 05:49:45;;;;;;;20.58;16.88;;;16.10;99.90;;;;;;4920148;29;20868;-91
2023/08/24 05:52:11;;;;;;;17.93;14.07;;;15.60;99.90;;;;;;4918958;29;20501;-91
2023/08/24 05:54:37;;;;;;;18.50;14.02;;;16.10;99.90;;;;;;4919651;29;20418;-92
2023/08/24 05:57:03;;;;;;;12.98;11.65;;;16.60;99.90;;;;;;4918512;29;20905;-91
2023/08/24 05:59:30;;;;;;;13.18;11.77;;;16.40;99.90;;;;;;4919728;29;20417;-92
2023/08/24 06:01:56;;;;;;;13.80;11.45;;;16.80;99.90;;;;;;4918952;29;20410;-91
2023/08/24 06:04:21;;;;;;;14.77;11.32;;;16.70;99.90;;;;;;4919066;29;20558;-91
2023/08/24 06:06:47;;;;;;;13.82;10.60;;;16.70;99.90;;;;;;4919795;28;20413;-91
2023/08/24 06:09:14;;;;;;;12.97;10.97;;;16.70;99.90;;;;;;4937953;28;20423;-91
2023/08/24 06:11:40;;;;;;;13.93;10.80;;;16.90;99.90;;;;;;4939033;28;20415;-92
2023/08/24 06:14:07;;;;;;;14.55;11.20;;;16.90;99.90;;;;;;4953199;28;20424;-91
2023/08/24 06:16:32;;;;;;;13.27;11.27;;;17.20;99.90;;;;;;4938092;28;20595;-93
2023/08/24 06:18:58;;;;;;;14.82;10.60;;;17.50;99.90;;;;;;4937982;28;20491;-93
2023/08/24 06:21:24;;;;;;;12.63;9.70;;;17.30;99.90;;;;;;4937847;28;20525;-93
2023/08/24 06:23:49;;;;;;;10.47;8.77;;;17.60;99.90;;;;;;4938072;28;20435;-93
2023/08/24 06:26:15;;;;;;;13.35;9.68;;;17.80;99.90;;;;;;4938518;28;21173;-92
2023/08/24 06:28:41;;;;;;;11.17;8.63;;;18.00;99.90;;;;;;4938529;28;20408;-91
2023/08/24 06:31:09;;;;;;;10.95;7.78;;;17.90;99.90;;;;;;4937070;28;20854;-93
2023/08/24 06:33:36;;;;;;;8.80;7.32;;;18.10;99.90;;;;;;4937794;28;20420;-92
2023/08/24 06:36:05;;;;;;;9.38;7.45;;;18.00;99.90;;;;;;4937242;28;20418;-93
2023/08/24 06:38:31;;;;;;;9.40;7.55;;;18.10;99.90;;;;;;4938014;28;20408;-94
2023/08/24 06:40:58;;;;;;;9.32;6.60;;;18.40;99.90;;;;;;4936483;28;21002;-94
2023/08/24 06:43:23;;;;;;;9.55;6.53;;;18.40;99.90;;;;;;4937832;28;20878;-93
2023/08/24 06:45:49;;;;;;;8.20;6.40;;;18.40;99.90;;;;;;4937690;28;20448;-91
2023/08/24 06:48:14;;;;;;;9.27;6.10;;;18.50;99.90;;;;;;4937223;28;20840;-91
2023/08/24 06:50:41;;;;;;;9.13;5.90;;;18.70;99.90;;;;;;4938256;28;20448;-91
2023/08/24 06:53:06;;;;;;;8.45;5.30;;;19.40;99.90;;;;;;4936980;28;20530;-92
2023/08/24 06:55:32;;;;;;;7.97;4.97;;;19.10;99.90;;;;;;4937764;28;20416;-92
2023/08/24 06:57:57;;;;;;;5.47;3.80;;;18.90;99.90;;;;;;4937359;28;20503;-93
2023/08/24 07:00:25;;;;;;;7.18;3.97;;;19.00;99.90;;;;;;4937848;28;20989;-91
2023/08/24 07:02:50;;;;;;;6.88;3.70;;;19.40;99.90;;;;;;4937336;28;20459;-92
2023/08/24 07:05:20;;;;;;;5.75;3.55;;;19.50;99.90;;;;;;4937115;28;20915;-92
2023/08/24 07:07:47;;;;;;;6.38;3.35;;;19.30;99.90;;;;;;4937468;28;20474;-92
2023/08/24 07:10:13;;;;;;;6.33;3.37;;;19.40;99.90;;;;;;4937026;28;20426;-91
2023/08/24 07:12:42;;;;;;;6.23;2.43;;;19.90;99.90;;;;;;4937821;28;20416;-91
2023/08/24 07:15:12;;;;;;;5.18;2.30;;;19.60;99.90;;;;;;4936665;28;20420;-92
2023/08/24 07:17:37;;;;;;;4.60;2.40;;;19.80;99.90;;;;;;4939472;28;20408;-92
2023/08/24 07:20:14;;;;;;;3.63;2.28;;;19.80;99.90;;;;;;4937384;28;20412;-92
2023/08/24 07:22:39;;;;;;;5.00;2.03;;;19.90;99.90;;;;;;4937405;28;20478;-92
2023/08/24 07:25:08;;;;;;;6.03;2.10;;;20.30;99.90;;;;;;4937924;28;20982;-93
2023/08/24 07:27:34;;;;;;;4.97;2.28;;;19.90;99.90;;;;;;4938449;28;20419;-92
2023/08/24 07:30:05;;;;;;;5.45;2.05;;;20.20;99.90;;;;;;4939775;28;20404;-92
2023/08/24 07:32:31;;;;;;;5.18;1.80;;;20.20;99.90;;;;;;4936136;28;20408;-92
2023/08/24 07:34:59;;;;;;;5.63;2.10;;;20.30;99.90;;;;;;4937051;28;20416;-92
2023/08/24 07:37:25;;;;;;;5.22;3.10;;;20.40;99.90;;;;;;4953651;28;20448;-93
2023/08/24 07:39:51;;;;;;;6.22;3.08;;;20.80;99.90;;;;;;4937003;28;20411;-94
2023/08/24 07:42:20;;;;;;;7.55;2.28;;;20.90;99.90;;;;;;4937565;28;20419;-91
2023/08/24 07:44:46;;;;;;;7.32;2.92;;;20.80;99.90;;;;;;4936213;28;20475;-92
2023/08/24 07:47:11;;;;;;;5.40;2.83;;;21.20;99.90;;;;;;4934839;29;20480;-92
2023/08/24 07:49:43;;;;;;;8.43;3.35;;;20.90;99.90;;;;;;4934662;29;20414;-93
2023/08/24 07:52:09;;;;;;;5.03;1.73;;;21.00;99.90;;;;;;4934605;29;20834;-93
2023/08/24 07:54:35;;;;;;;12.45;2.42;;;21.10;99.90;;;;;;4934860;29;20414;-93
2023/08/24 07:57:01;;;;;;;6.97;3.28;;;21.60;99.90;;;;;;4934817;29;20444;-93
2023/08/24 07:59:26;;;;;;;7.78;4.20;;;21.40;99.90;;;;;;4933229;29;20763;-93
2023/08/24 08:01:52;;;;;;;6.67;2.80;;;21.40;99.90;;;;;;4933591;29;20413;-92
2023/08/24 08:04:18;;;;;;;7.85;2.80;;;21.40;99.90;;;;;;4934371;29;20429;-95
2023/08/24 08:06:43;;;;;;;9.85;3.60;;;21.40;99.90;;;;;;4933699;29;20994;-93
2023/08/24 08:09:09;;;;;;;6.70;4.23;;;21.50;99.90;;;;;;4933488;29;20453;-94
2023/08/24 08:11:35;;;;;;;7.88;4.93;;;21.70;99.90;;;;;;4932494;29;20450;-92
2023/08/24 08:14:00;;;;;;;7.68;5.95;;;22.00;99.90;;;;;;4935418;29;20500;-93
2023/08/24 08:16:26;;;;;;;8.17;5.83;;;21.80;99.90;;;;;;4932966;29;20413;-92
2023/08/24 08:18:52;;;;;;;9.07;6.78;;;22.10;99.90;;;;;;4940451;29;20929;-91
2023/08/24 08:21:28;;;;;;;9.60;7.00;;;22.10;99.90;;;;;;4941582;29;20409;-93
2023/08/24 08:24:02;;;;;;;9.57;6.90;;;22.00;99.90;;;;;;4944061;29;20448;-88
2023/08/24 08:26:29;;;;;;;8.97;7.57;;;22.10;99.90;;;;;;4935919;29;20401;-92
2023/08/24 08:46:02;;;;;;;9.40;6.77;;;21.70;99.90;;;;;;5084672;27;1986574;-95
2023/08/24 08:48:41;;;;;;;11.25;6.50;;;22.70;99.90;;;;;;5118677;27;20446;-94
2023/08/24 08:51:17;;;;;;;10.55;6.90;;;22.80;99.90;;;;;;5098715;27;21006;-93
2023/08/24 08:53:49;;;;;;;8.68;6.75;;;22.80;99.90;;;;;;5116008;27;20429;-94
2023/08/24 08:56:15;;;;;;;8.27;7.43;;;22.70;99.90;;;;;;5113918;27;20406;-93
2023/08/24 08:58:43;;;;;;;10.80;6.47;;;22.70;99.90;;;;;;5115358;27;20942;-94
2023/08/24 09:01:12;;;;;;;9.95;6.32;;;22.50;99.90;;;;;;5131444;27;20900;-95
2023/08/24 09:03:39;;;;;;;9.43;6.50;;;22.70;99.90;;;;;;5119002;27;20394;-93
2023/08/24 09:06:05;;;;;;;8.70;6.30;;;22.50;99.90;;;;;;5110771;27;20449;-92
2023/08/24 09:08:32;;;;;;;10.90;6.40;;;22.80;99.90;;;;;;5113076;27;20481;-92
2023/08/24 09:10:59;;;;;;;8.82;5.35;;;22.70;99.90;;;;;;5111534;27;20394;-93
2023/08/24 09:13:25;;;;;;;10.45;5.72;;;22.80;99.90;;;;;;5113270;27;20418;-94
2023/08/24 09:15:53;;;;;;;7.88;5.72;;;23.00;99.90;;;;;;5114442;27;20436;-94
2023/08/24 09:18:19;;;;;;;9.48;5.43;;;23.00;99.90;;;;;;5113741;27;20450;-93
2023/08/24 09:20:47;;;;;;;7.60;5.30;;;23.10;99.90;;;;;;5114585;27;20420;-93
2023/08/24 09:23:22;;;;;;;7.80;5.57;;;23.50;99.90;;;;;;5113978;27;20920;-94
2023/08/24 09:25:51;;;;;;;12.65;5.95;;;23.30;99.90;;;;;;5115629;27;20414;-94
2023/08/24 09:28:24;;;;;;;10.30;5.75;;;23.40;99.90;;;;;;5110891;27;20441;-94
2023/08/24 09:30:54;;;;;;;9.53;5.43;;;23.30;99.90;;;;;;5112262;27;20427;-93
2023/08/24 09:33:21;;;;;;;7.80;5.68;;;23.00;99.90;;;;;;5110291;27;20398;-92
2023/08/24 09:35:54;;;;;;;7.85;5.60;;;23.20;99.90;;;;;;5113094;27;20825;-92
2023/08/24 09:38:24;;;;;;;9.65;5.55;;;23.20;99.90;;;;;;5112837;27;20427;-93
2023/08/24 09:40:55;;;;;;;7.88;5.13;;;23.20;99.90;;;;;;5112976;27;20446;-94
2023/08/24 09:43:22;;;;;;;7.68;5.20;;;23.10;99.90;;;;;;5114606;27;20406;-95
2023/08/24 09:45:55;;;;;;;9.57;5.67;;;23.10;99.90;;;;;;5100469;28;20405;-95
2023/08/24 09:48:22;;;;;;;8.70;5.50;;;23.00;99.90;;;;;;5094815;28;20505;-92
2023/08/24 09:50:49;;;;;;;6.55;5.05;;;22.90;99.90;;;;;;5094116;28;20396;-92
2023/08/24 09:53:20;;;;;;;6.20;4.80;;;23.30;99.90;;;;;;5094362;28;20403;-93
2023/08/24 09:56:02;;;;;;;6.73;4.83;;;23.20;99.90;;;;;;5094755;28;20420;-93
2023/08/24 09:58:29;;;;;;;7.05;5.57;;;22.80;99.90;;;;;;5094045;27;20457;-93
2023/08/24 10:00:55;;;;;;;9.52;5.55;;;22.80;99.90;;;;;;5094163;28;21028;-92
2023/08/24 10:03:30;;;;;;;7.18;5.10;;;22.70;99.90;;;;;;5092321;28;20798;-92
2023/08/24 10:06:03;;;;;;;8.40;5.43;;;22.70;99.90;;;;;;5093379;28;20609;-91
2023/08/24 10:08:58;;;;;;;8.73;5.90;;;22.60;99.90;;;;;;5092701;28;20904;-91
2023/08/24 10:11:28;;;;;;;8.52;5.63;;;22.50;99.90;;;;;;5087587;28;20925;-93
2023/08/24 10:14:12;;;;;;;6.47;5.50;;;22.60;99.90;;;;;;5094597;28;20436;-94
2023/08/24 10:16:40;;;;;;;7.82;5.75;;;22.30;99.90;;;;;;5104662;28;20401;-93
2023/08/24 10:21:50;;;;;;;7.22;5.68;;;22.20;99.90;;;;;;5294643;22;20438;-95
2023/08/24 10:24:42;;;;;;;9.00;6.35;;;22.30;99.90;;;;;;5066516;28;20438;-95
2023/08/24 10:27:09;;;;;;;9.52;6.07;;;22.20;99.90;;;;;;5058169;28;21194;-95
2023/08/24 10:32:45;;;;;;;8.53;6.40;;;22.00;99.90;;;;;;5154850;22;20423;-96
2023/08/24 10:35:22;;;;;;;8.82;6.60;;;22.10;99.90;;;;;;5007461;28;20441;-95
2023/08/24 10:37:48;;;;;;;9.23;6.68;;;21.90;99.90;;;;;;5206429;23;20480;-96
2023/08/24 10:40:52;;;;;;;8.48;7.05;;;22.00;99.90;;;;;;5272676;22;20395;-95
2023/08/24 10:43:35;;;;;;;10.13;7.15;;;22.00;99.90;;;;;;5017908;28;20438;-96
2023/08/24 10:46:23;;;;;;;13.43;7.33;;;22.20;99.90;;;;;;5000964;28;20474;-96
2023/08/24 10:48:58;;;;;;;9.90;7.28;;;21.80;99.90;;;;;;4997633;28;20455;-94
2023/08/24 10:51:26;;;;;;;9.38;6.63;;;21.80;99.90;;;;;;5002558;28;20411;-94
2023/08/24 10:54:08;;;;;;;9.77;7.25;;;21.80;99.90;;;;;;5013431;28;20427;-96
2023/08/24 10:56:40;;;;;;;14.60;8.88;;;21.70;99.90;;;;;;5005388;28;20502;-94
2023/08/24 10:59:18;;;;;;;11.57;9.20;;;21.90;99.90;;;;;;5010977;28;20519;-93
2023/08/24 11:01:55;;;;;;;13.83;10.00;;;21.50;99.90;;;;;;4996312;28;20427;-94
2023/08/24 11:04:21;;;;;;;17.27;11.85;;;21.40;99.90;;;;;;4995873;28;20502;-94
2023/08/24 11:07:03;;;;;;;14.50;11.38;;;21.30;99.90;;;;;;5011156;28;20403;-92
2023/08/24 11:09:48;;;;;;;14.93;12.38;;;21.30;99.90;;;;;;4996471;28;20910;-92
2023/08/24 11:12:14;;;;;;;15.40;13.60;;;21.50;99.90;;;;;;5010647;28;20510;-92
2023/08/24 11:14:58;;;;;;;18.15;14.60;;;21.10;99.90;;;;;;5012277;28;21022;-93
2023/08/24 11:17:29;;;;;;;19.58;16.52;;;21.10;99.90;;;;;;4995950;28;20438;-95
2023/08/24 11:19:55;;;;;;;20.17;17.20;;;21.10;99.90;;;;;;4993759;28;20434;-94
2023/08/24 11:22:23;;;;;;;19.55;17.30;;;21.00;99.90;;;;;;4995750;28;20399;-92
2023/08/24 11:24:49;;;;;;;25.10;20.88;;;21.10;99.90;;;;;;4993104;28;20418;-95
2023/08/24 11:27:16;;;;;;;22.87;18.33;;;20.90;99.90;;;;;;4997557;28;20767;-96
2023/08/24 11:29:42;;;;;;;23.58;19.10;;;21.00;99.90;;;;;;4992885;28;20475;-94
2023/08/24 11:32:08;;;;;;;21.53;19.23;;;21.30;99.90;;;;;;4995488;28;20465;-93
2023/08/24 11:34:37;;;;;;;24.55;19.92;;;21.00;99.90;;;;;;4993772;28;20442;-94
2023/08/24 11:37:04;;;;;;;20.33;17.48;;;21.10;99.90;;;;;;4995417;28;20545;-94
2023/08/24 11:39:32;;;;;;;21.02;17.98;;;21.10;99.90;;;;;;4995101;28;20775;-94
2023/08/24 11:42:02;;;;;;;24.17;21.27;;;21.50;99.90;;;;;;5019557;28;20416;-94
2023/08/24 11:44:29;;;;;;;22.35;20.02;;;21.20;99.90;;;;;;5015242;28;20412;-95
2023/08/24 11:46:59;;;;;;;23.25;18.83;;;21.20;99.90;;;;;;5029549;28;20511;-93
2023/08/24 11:49:25;;;;;;;26.30;23.60;;;21.40;99.90;;;;;;5014964;28;21055;-94
2023/08/24 11:51:51;;;;;;;24.83;22.33;;;21.30;99.90;;;;;;5013683;28;20492;-94
2023/08/24 11:54:19;;;;;;;21.65;19.40;;;21.40;99.90;;;;;;5014183;28;20509;-92
2023/08/24 11:56:46;;;;;;;23.67;21.25;;;21.50;99.90;;;;;;5031345;28;20417;-94
2023/08/24 11:59:16;;;;;;;24.10;21.60;;;21.50;99.90;;;;;;5047250;28;20879;-92
2023/08/24 12:01:42;;;;;;;23.43;21.00;;;21.50;99.90;;;;;;5035082;28;20407;-92
2023/08/24 12:04:09;;;;;;;22.13;19.93;;;21.60;99.90;;;;;;5049245;28;20407;-92
2023/08/24 12:06:34;;;;;;;27.65;24.67;;;21.50;99.90;;;;;;5050936;28;20439;-93
2023/08/24 12:09:02;;;;;;;26.37;23.53;;;21.90;99.90;;;;;;5032347;28;20852;-90
2023/08/24 12:11:28;;;;;;;26.75;24.25;;;21.50;99.90;;;;;;5033972;28;20823;-92
2023/08/24 12:43:25;;;;;;;32.83;29.63;;;21.90;99.90;;;;;;6041965;23;2101891;-90
2023/08/24 12:45:50;;;;;;;32.13;28.88;;;22.20;99.90;;;;;;6077581;23;20452;-90
2023/08/24 12:48:16;;;;;;;31.13;27.93;;;21.90;99.90;;;;;;6101319;23;20388;-89
2023/08/24 12:50:42;;;;;;;33.92;30.52;;;21.90;99.90;;;;;;6077317;23;20927;-88
2023/08/24 12:53:07;;;;;;;33.47;30.13;;;21.90;99.90;;;;;;6075517;23;20908;-88
2023/08/24 12:55:34;;;;;;;28.40;25.42;;;21.90;99.90;;;;;;6101318;23;20380;-87
2023/08/24 12:58:00;;;;;;;37.75;32.72;;;22.00;99.90;;;;;;6099280;23;20391;-88
2023/08/24 13:00:27;;;;;;;33.87;30.17;;;22.10;99.90;;;;;;6101094;23;20464;-87
2023/08/24 13:02:53;;;;;;;35.80;31.52;;;22.10;99.90;;;;;;6099456;23;20436;-88
2023/08/24 13:05:18;;;;;;;40.13;35.90;;;22.30;99.90;;;;;;6101123;23;20406;-89
2023/08/24 13:07:44;;;;;;;36.17;32.53;;;22.20;99.90;;;;;;6101151;23;20372;-88
2023/08/24 13:10:11;;;;;;;37.43;33.53;;;22.00;99.90;;;;;;6126028;23;20443;-88
2023/08/24 13:12:37;;;;;;;39.13;35.22;;;22.10;99.90;;;;;;6100981;23;20387;-87
2023/08/24 13:15:03;;;;;;;41.28;37.03;;;21.90;99.90;;;;;;6098684;23;20765;-88
2023/08/24 13:17:32;;;;;;;37.03;33.47;;;21.90;99.90;;;;;;6101723;23;20375;-90
2023/08/24 13:19:58;;;;;;;34.58;31.23;;;21.90;99.90;;;;;;6074964;23;20467;-88
2023/08/24 13:22:23;;;;;;;36.83;33.13;;;21.70;99.90;;;;;;6126858;23;20798;-89
2023/08/24 13:24:49;;;;;;;42.00;37.97;;;21.60;99.90;;;;;;6099817;23;20721;-89
2023/08/24 13:27:15;;;;;;;38.23;34.77;;;21.60;99.90;;;;;;6076867;23;20456;-90
2023/08/24 13:29:42;;;;;;;44.22;39.85;;;21.80;99.90;;;;;;6077647;23;20372;-89
2023/08/24 13:32:07;;;;;;;39.23;35.73;;;22.00;99.90;;;;;;6099801;23;20430;-89